ěÝzenÝ letovÚho provozu ╚eskÚ republiky
Letiste: LKPJ Aktualizace: 10.08.2020 04:00:24  UTC
 METAR LKPJ 10.08. 04:00 ...
METAR LKPJ 100400Z AUTO 31004KT CAVOK 18/16 Q1017=